createdAt,value
2023-11-25T00:06:06.130Z,53.85
2023-11-25T00:13:07.758Z,58.22
2023-11-25T00:20:09.935Z,58.38
2023-11-25T00:27:11.465Z,58.67
2023-11-25T00:34:13.049Z,59.80
2023-11-25T00:41:14.572Z,54.00
2023-11-25T00:48:17.177Z,55.35
2023-11-25T00:55:18.762Z,55.47
2023-11-25T01:02:20.427Z,57.40
2023-11-25T01:09:24.207Z,55.85
2023-11-25T01:16:26.167Z,56.53
2023-11-25T01:23:27.724Z,55.20
2023-11-25T01:30:29.306Z,53.92
2023-11-25T01:37:31.191Z,52.30
2023-11-25T01:44:33.494Z,50.72
2023-11-25T01:51:37.788Z,50.33
2023-11-25T01:58:40.029Z,49.53
2023-11-25T02:05:43.235Z,48.58
2023-11-25T02:12:44.764Z,46.70
2023-11-25T02:19:46.955Z,47.78
2023-11-25T02:26:49.224Z,46.40
2023-11-25T02:33:50.773Z,43.58
2023-11-25T02:40:52.687Z,44.20
2023-11-25T02:47:54.339Z,48.15
2023-11-25T02:54:55.917Z,50.35
2023-11-25T03:01:59.870Z,47.45
2023-11-25T03:09:02.425Z,45.05
2023-11-25T03:16:06.322Z,46.22
2023-11-25T03:23:08.237Z,42.97
2023-11-25T03:30:12.591Z,45.50
2023-11-25T03:37:14.488Z,46.47
2023-11-25T03:44:17.709Z,44.60
2023-11-25T03:51:19.225Z,45.40
2023-11-25T03:58:20.788Z,47.65
2023-11-25T04:05:23.953Z,49.95
2023-11-25T04:12:25.563Z,49.40
2023-11-25T04:19:28.127Z,50.17
2023-11-25T04:26:29.624Z,54.28
2023-11-25T04:33:31.266Z,53.53
2023-11-25T04:40:33.036Z,52.42
2023-11-25T04:47:34.632Z,54.58
2023-11-25T04:54:36.789Z,53.05
2023-11-25T05:01:40.327Z,62.08
2023-11-25T05:08:43.112Z,60.03
2023-11-25T05:15:45.100Z,53.80
2023-11-25T05:22:46.844Z,60.17
2023-11-25T05:29:48.431Z,55.75
2023-11-25T05:36:49.993Z,57.25
2023-11-25T05:43:51.745Z,55.28
2023-11-25T05:50:53.289Z,48.63
2023-11-25T05:57:55.623Z,49.35
2023-11-25T06:04:58.676Z,44.28
2023-11-25T06:12:00.414Z,43.95
2023-11-25T06:19:02.029Z,43.25
2023-11-25T06:26:03.636Z,42.67
2023-11-25T06:33:05.285Z,45.70
2023-11-25T06:40:08.117Z,59.47
2023-11-25T06:47:09.776Z,63.53
2023-11-25T06:54:11.945Z,64.03
2023-11-25T07:01:20.631Z,60.75
2023-11-25T07:08:22.368Z,63.85
2023-11-25T07:15:23.872Z,57.00
2023-11-25T07:22:25.380Z,46.08
2023-11-25T07:29:32.058Z,48.65
2023-11-25T07:36:33.655Z,47.70
2023-11-25T07:43:35.294Z,53.38
2023-11-25T07:50:39.046Z,48.05
2023-11-25T07:57:40.923Z,59.17
2023-11-25T08:04:42.722Z,67.18
2023-11-25T08:11:44.243Z,73.75
2023-11-25T08:18:47.385Z,62.55
2023-11-25T08:25:49.094Z,72.07
2023-11-25T08:32:50.724Z,63.33
2023-11-25T08:39:53.393Z,55.70
2023-11-25T08:46:57.829Z,52.58
2023-11-25T08:53:59.386Z,54.42
2023-11-25T09:01:02.799Z,57.05
2023-11-25T09:08:08.161Z,49.33
2023-11-25T09:15:13.526Z,43.63
2023-11-25T09:22:15.198Z,35.60
2023-11-25T09:29:16.689Z,34.78
2023-11-25T09:36:19.260Z,34.03
2023-11-25T09:43:22.535Z,34.35
2023-11-25T09:50:24.174Z,33.67
2023-11-25T09:57:33.373Z,38.60
2023-11-25T10:04:39.102Z,37.38
2023-11-25T10:11:44.149Z,31.20
2023-11-25T10:18:45.948Z,30.80
2023-11-25T10:25:47.788Z,28.02
2023-11-25T10:32:51.162Z,24.85
2023-11-25T10:39:53.349Z,24.77
2023-11-25T10:46:57.511Z,27.05
2023-11-25T10:54:00.081Z,27.90
2023-11-25T11:01:03.358Z,27.60
2023-11-25T11:08:08.867Z,29.98
2023-11-25T11:15:15.662Z,29.15
2023-11-25T11:22:19.218Z,34.78
2023-11-25T11:29:30.051Z,37.03
2023-11-25T11:36:32.520Z,35.08
2023-11-25T11:43:34.361Z,33.30
2023-11-25T11:50:36.547Z,32.15
2023-11-25T11:58:10.993Z,32.50
2023-11-25T12:05:12.702Z,26.15
2023-11-25T12:12:15.918Z,28.60
2023-11-25T12:19:17.825Z,31.88
2023-11-25T12:26:22.682Z,30.70
2023-11-25T12:33:24.496Z,34.72
2023-11-25T12:40:27.079Z,35.35
2023-11-25T12:47:29.457Z,37.60
2023-11-25T12:54:46.902Z,33.60
2023-11-25T13:01:48.712Z,37.65
2023-11-25T13:08:50.583Z,35.03
2023-11-25T13:15:53.984Z,32.63
2023-11-25T13:22:55.585Z,27.83
2023-11-25T13:29:57.266Z,31.25
2023-11-25T13:36:58.776Z,32.20
2023-11-25T13:44:00.388Z,38.05
2023-11-25T13:51:04.471Z,37.92
2023-11-25T13:58:07.984Z,40.20
2023-11-25T14:05:10.071Z,39.88
2023-11-25T14:12:11.601Z,43.22
2023-11-25T14:19:13.676Z,36.17
2023-11-25T14:26:15.758Z,34.50
2023-11-25T14:33:17.405Z,35.10
2023-11-25T14:40:19.197Z,38.03
2023-11-25T14:47:20.839Z,34.20
2023-11-25T14:54:24.257Z,33.15
2023-11-25T15:01:26.093Z,35.75
2023-11-25T15:08:27.666Z,37.75
2023-11-25T15:15:29.464Z,37.30
2023-11-25T15:22:30.998Z,40.42
2023-11-25T15:29:32.521Z,40.78
2023-11-25T15:36:35.240Z,44.05
2023-11-25T15:43:38.628Z,46.25
2023-11-25T15:50:43.625Z,55.75
2023-11-25T15:57:46.140Z,49.53
2023-11-25T16:04:49.636Z,49.83
2023-11-25T16:11:51.314Z,46.28
2023-11-25T16:18:52.786Z,43.88
2023-11-25T16:25:54.682Z,64.15
2023-11-25T16:32:56.426Z,39.85
2023-11-25T16:39:59.379Z,39.22
2023-11-25T16:47:00.968Z,32.88
2023-11-25T16:54:02.522Z,39.92
2023-11-25T17:01:04.755Z,38.10
2023-11-25T17:08:07.085Z,42.83
2023-11-25T17:15:09.086Z,41.85
2023-11-25T17:22:10.607Z,38.75
2023-11-25T17:29:13.269Z,36.65
2023-11-25T17:36:14.819Z,38.30
2023-11-25T17:43:16.305Z,34.72
2023-11-25T17:50:18.147Z,34.38
2023-11-25T17:57:19.802Z,33.30
2023-11-25T18:04:23.693Z,30.85
2023-11-25T18:11:25.269Z,29.33
2023-11-25T18:18:26.804Z,30.02
2023-11-25T18:25:28.320Z,27.95
2023-11-25T18:32:29.897Z,27.50
2023-11-25T18:39:31.434Z,28.90
2023-11-25T18:46:34.587Z,29.63
2023-11-25T18:53:36.753Z,32.63
2023-11-25T19:00:38.305Z,33.63
2023-11-25T19:07:39.848Z,36.78
2023-11-25T19:14:41.360Z,34.65
2023-11-25T19:21:42.841Z,33.05
2023-11-25T19:28:44.461Z,34.50
2023-11-25T19:35:47.038Z,33.28
2023-11-25T19:42:48.612Z,30.77
2023-11-25T19:49:50.257Z,33.65
2023-11-25T19:56:51.877Z,36.40
2023-11-25T20:03:53.429Z,37.05
2023-11-25T20:10:55.004Z,33.15
2023-11-25T20:17:56.629Z,42.50
2023-11-25T20:25:00.824Z,44.15
2023-11-25T20:32:02.993Z,48.85
2023-11-25T20:39:04.646Z,53.63
2023-11-25T20:46:06.568Z,52.83
2023-11-25T20:53:08.214Z,48.53
2023-11-25T21:00:11.814Z,54.40
2023-11-25T21:07:13.447Z,53.50
2023-11-25T21:14:15.085Z,48.40
2023-11-25T21:21:16.691Z,50.05
2023-11-25T21:28:18.825Z,51.72
2023-11-25T21:35:20.464Z,54.03
2023-11-25T21:42:22.031Z,46.67
2023-11-25T21:49:23.549Z,45.92
2023-11-25T21:56:25.628Z,40.60
2023-11-25T22:03:29.084Z,41.10
2023-11-25T22:10:31.711Z,41.00
2023-11-25T22:17:33.279Z,43.88
2023-11-25T22:24:34.810Z,43.60
2023-11-25T22:31:36.327Z,49.05
2023-11-25T22:38:37.875Z,48.58
2023-11-25T22:45:39.461Z,49.25
2023-11-25T22:52:41.134Z,53.20
2023-11-25T22:59:43.956Z,50.75
2023-11-25T23:06:48.623Z,55.50
2023-11-25T23:13:50.236Z,57.22
2023-11-25T23:20:51.984Z,58.97
2023-11-25T23:27:54.079Z,56.78
2023-11-25T23:34:55.646Z,59.50
2023-11-25T23:41:57.181Z,60.28
2023-11-25T23:48:58.762Z,62.42
2023-11-25T23:56:00.377Z,60.00
